Time;durP1;ratioP1;P1;durP2;ratioP2;P2;SDS_P1;SDS_P2;PMS_P1;PMS_P2;Temp;Humidity;BMP_temperature;BMP_pressure;BME280_temperature;BME280_humidity;BME280_pressure;Samples;Min_cycle;Max_cycle;Signal;HPM_P1;HPM_P2
2022/05/27 00:58:22;;;;;;;2.50;2.30;;;12.60;96.50;;;;;;4780433;29;20210;-88
2022/05/27 01:04:55;;;;;;;2.67;2.13;;;12.60;96.30;;;;;;4833583;29;20224;-87
2022/05/27 01:14:45;;;;;;;2.08;1.88;;;12.70;96.30;;;;;;4838665;29;20193;-87
2022/05/27 01:21:54;;;;;;;2.63;1.98;;;12.70;96.30;;;;;;4729784;30;20226;-87
2022/05/27 01:25:11;;;;;;;5.95;2.15;;;12.70;96.30;;;;;;4681571;30;20243;-88
2022/05/27 01:51:35;;;;;;;1.98;1.80;;;12.60;96.30;;;;;;4735923;30;20207;-88
2022/05/27 01:54:12;;;;;;;3.38;1.90;;;12.50;96.20;;;;;;4751711;30;20289;-88
2022/05/27 02:00:07;;;;;;;2.75;2.00;;;12.40;96.30;;;;;;4874159;29;20219;-88
2022/05/27 02:06:00;;;;;;;4.57;2.00;;;12.20;96.20;;;;;;4877534;29;20229;-88
2022/05/27 02:09:17;;;;;;;3.17;1.90;;;12.20;96.20;;;;;;4911553;29;20207;-88
2022/05/27 02:12:09;;;;;;;3.35;1.80;;;12.20;96.20;;;;;;4909823;29;20218;-88
2022/05/27 02:15:01;;;;;;;2.17;1.95;;;12.00;96.20;;;;;;4911354;29;20199;-87
2022/05/27 02:20:57;;;;;;;2.75;1.90;;;11.80;97.00;;;;;;4907190;29;20206;-87
2022/05/27 02:27:04;;;;;;;2.80;1.80;;;11.90;97.50;;;;;;4906835;29;20255;-88
2022/05/27 02:30:39;;;;;;;;;;;;;;;;;;;;;
2022/05/27 03:21:00;;;;;;;4.97;2.03;;;13.50;95.40;;;;;;4910320;29;20224;-88
2022/05/27 03:58:09;;;;;;;2.78;1.90;;;13.70;95.10;;;;;;4906912;29;20256;-88
2022/05/27 04:25:10;;;;;;;;;;;;;;;;;;;;;
2022/05/27 04:45:01;;;;;;;2.75;2.00;;;14.40;91.90;;;;;;4800235;29;20226;-88
2022/05/27 04:47:49;;;;;;;;;;;;;;;;;;;;;
2022/05/27 05:51:12;;;;;;;3.85;1.45;;;16.10;79.40;;;;;;4847194;29;20272;-89
2022/05/27 08:18:03;;;;;;;6.97;5.40;;;19.20;47.90;;;;;;4912187;29;20203;-87
2022/05/27 08:20:39;;;;;;;7.50;6.68;;;20.00;45.10;;;;;;4903834;29;20215;-87
2022/05/27 08:23:19;;;;;;;3.90;1.50;;;21.20;40.00;;;;;;4900558;29;20303;-88
2022/05/27 08:25:55;;;;;;;3.75;2.22;;;22.70;34.40;;;;;;4899280;29;20646;-83
2022/05/27 08:28:25;;;;;;;11.80;10.50;;;24.20;27.40;;;;;;4896448;29;20707;-83
2022/05/27 08:31:00;;;;;;;54.22;40.25;;;24.40;28.10;;;;;;4899780;29;20255;-84
2022/05/27 08:39:24;;;;;;;2.08;1.60;;;24.70;25.10;;;;;;4896163;29;20230;-81
2022/05/27 08:42:14;;;;;;;4.47;2.00;;;25.80;23.60;;;;;;4895661;29;20233;-86
2022/05/27 08:44:52;;;;;;;2.38;2.15;;;26.50;20.90;;;;;;4894366;29;20214;-83
2022/05/27 08:47:37;;;;;;;3.60;2.25;;;27.70;17.70;;;;;;4896519;29;20204;-82
2022/05/27 08:50:13;;;;;;;4.30;2.10;;;28.80;16.10;;;;;;4900028;29;20286;-82
2022/05/27 08:52:52;;;;;;;12.48;11.20;;;29.60;15.40;;;;;;4899221;29;20258;-83
2022/05/27 09:01:32;;;;;;;41.75;37.55;;;30.80;13.90;;;;;;4906561;29;20213;-82
2022/05/27 09:04:05;;;;;;;7.00;6.32;;;30.80;12.70;;;;;;4902351;29;20205;-83
2022/05/27 09:06:42;;;;;;;5.55;5.00;;;30.50;13.10;;;;;;4904336;29;20226;-82
2022/05/27 09:09:17;;;;;;;2.83;2.25;;;29.80;14.20;;;;;;4907839;29;20202;-82
2022/05/27 09:11:54;;;;;;;3.00;2.10;;;30.00;13.40;;;;;;4899857;29;20214;-83
2022/05/27 09:14:45;;;;;;;2.90;2.55;;;30.50;13.10;;;;;;4899445;29;20210;-83
2022/05/27 09:17:26;;;;;;;3.85;2.20;;;30.80;12.50;;;;;;4898588;29;20422;-82
2022/05/27 09:20:00;;;;;;;2.88;2.55;;;31.20;12.00;;;;;;4937716;29;20197;-84
2022/05/27 09:23:06;;;;;;;3.85;2.50;;;31.90;11.20;;;;;;4935817;29;20679;-83
2022/05/27 09:25:52;;;;;;;2.30;1.90;;;31.50;11.60;;;;;;4936928;29;20243;-83
2022/05/27 09:28:33;;;;;;;8.32;2.13;;;30.00;13.60;;;;;;4936088;29;20692;-83
2022/05/27 09:34:27;;;;;;;2.55;2.15;;;27.40;15.50;;;;;;4937886;29;20197;-83
2022/05/27 09:36:59;;;;;;;2.15;1.95;;;28.10;15.70;;;;;;4934812;29;20209;-83
2022/05/27 09:39:36;;;;;;;5.72;2.20;;;29.00;16.20;;;;;;4936734;29;20213;-83
2022/05/27 09:42:30;;;;;;;7.75;1.85;;;29.20;16.20;;;;;;4937872;29;20713;-83
2022/05/27 09:45:18;;;;;;;2.10;1.80;;;28.90;16.10;;;;;;4936350;29;20321;-83
2022/05/27 09:47:45;;;;;;;3.05;1.90;;;30.20;13.20;;;;;;4940114;29;20202;-83
2022/05/27 09:50:25;;;;;;;2.63;1.90;;;30.80;12.60;;;;;;4944814;29;20205;-84
2022/05/27 09:53:01;;;;;;;2.17;1.77;;;31.50;11.50;;;;;;4938984;29;20217;-83
2022/05/27 09:55:40;;;;;;;3.00;1.98;;;30.70;12.40;;;;;;4939512;29;20213;-85
2022/05/27 09:58:29;;;;;;;1.80;1.70;;;28.20;15.80;;;;;;4939347;29;20207;-82
2022/05/27 10:00:56;;;;;;;2.95;2.00;;;27.80;15.60;;;;;;4939577;29;20210;-83
2022/05/27 10:03:36;;;;;;;3.67;2.00;;;28.90;16.90;;;;;;4943234;29;20216;-82
2022/05/27 10:06:07;;;;;;;2.03;1.77;;;30.20;13.30;;;;;;4943249;29;20712;-83
2022/05/27 10:08:44;;;;;;;3.45;2.00;;;31.20;14.50;;;;;;4943456;29;20208;-83
2022/05/27 10:11:22;;;;;;;4.53;2.10;;;32.60;10.40;;;;;;4943742;29;20264;-83
2022/05/27 10:14:11;;;;;;;2.72;2.15;;;32.30;9.60;;;;;;4947776;29;20206;-82
2022/05/27 10:16:40;;;;;;;4.43;2.00;;;31.00;11.00;;;;;;4949449;29;20213;-84
2022/05/27 10:19:12;;;;;;;2.97;2.08;;;30.90;12.50;;;;;;4948196;29;20216;-83
2022/05/27 10:21:50;;;;;;;4.50;2.20;;;31.80;11.60;;;;;;4926577;29;20220;-83
2022/05/27 10:24:21;;;;;;;3.55;2.00;;;32.20;10.20;;;;;;4929562;29;20217;-83
2022/05/27 10:27:12;;;;;;;3.42;2.03;;;32.60;10.30;;;;;;4929672;29;20252;-83
2022/05/27 10:30:02;;;;;;;3.58;2.30;;;33.00;8.50;;;;;;4934817;29;20209;-83
2022/05/27 10:32:33;;;;;;;2.15;1.80;;;31.40;9.30;;;;;;4931786;29;20673;-84
2022/05/27 10:35:34;;;;;;;2.15;1.92;;;31.20;10.70;;;;;;4936597;29;20208;-84
2022/05/27 10:38:11;;;;;;;3.13;2.05;;;29.40;14.20;;;;;;4870172;29;20203;-85
2022/05/27 10:40:51;;;;;;;5.13;2.00;;;28.80;15.60;;;;;;4919816;29;20333;-82
2022/05/27 10:43:55;;;;;;;3.22;1.73;;;27.80;15.50;;;;;;4926367;29;20353;-82
2022/05/27 10:46:38;;;;;;;3.55;1.60;;;27.40;17.10;;;;;;4933080;29;20298;-81
2022/05/27 10:49:34;;;;;;;2.70;1.75;;;27.20;17.00;;;;;;4936205;29;20206;-83
2022/05/27 10:52:42;;;;;;;2.85;1.77;;;27.60;17.00;;;;;;4938398;29;20209;-85
2022/05/27 10:55:19;;;;;;;3.05;1.60;;;27.40;17.40;;;;;;4932330;29;20654;-84
2022/05/27 11:05:05;;;;;;;4.00;1.80;;;25.50;19.90;;;;;;4929934;29;20722;-83
2022/05/27 11:07:59;;;;;;;2.10;1.83;;;25.50;21.50;;;;;;4928418;29;20228;-85
2022/05/27 11:10:43;;;;;;;1.85;1.40;;;26.00;25.10;;;;;;4929117;29;20202;-84
2022/05/27 11:16:46;;;;;;;4.15;1.40;;;25.50;22.70;;;;;;4936121;29;20209;-84
2022/05/27 11:20:00;;;;;;;4.30;1.17;;;24.90;22.70;;;;;;4937865;29;20208;-84
2022/05/27 11:22:35;;;;;;;6.72;3.63;;;24.70;22.90;;;;;;4939641;29;20694;-85
2022/05/27 11:25:21;;;;;;;2.65;1.60;;;24.50;25.60;;;;;;4948051;29;20233;-85
2022/05/27 11:28:42;;;;;;;3.83;1.40;;;24.70;25.00;;;;;;4945767;29;20234;-84
2022/05/27 11:31:48;;;;;;;2.28;1.42;;;25.00;23.30;;;;;;4943428;29;20225;-87
2022/05/27 11:38:18;;;;;;;2.05;1.40;;;25.50;22.50;;;;;;4939895;29;20553;-86
2022/05/27 11:41:24;;;;;;;3.75;1.55;;;24.80;22.10;;;;;;4941153;29;20309;-89
2022/05/27 11:44:48;;;;;;;4.35;1.40;;;24.20;23.80;;;;;;4934164;29;20672;-85
2022/05/27 11:47:46;;;;;;;2.35;1.45;;;24.00;24.30;;;;;;4930218;29;20222;-89
2022/05/27 11:50:26;;;;;;;4.70;1.60;;;24.20;27.20;;;;;;4930751;29;20210;-88
2022/05/27 11:53:07;;;;;;;7.22;2.22;;;24.60;26.50;;;;;;4943806;29;20194;-89
2022/05/27 12:02:57;;;;;;;3.17;1.50;;;25.50;22.70;;;;;;4942302;29;20217;-86
2022/05/27 12:08:56;;;;;;;1.60;1.50;;;25.80;22.90;;;;;;4942797;29;20185;-86
2022/05/27 12:18:21;;;;;;;1.52;1.40;;;24.90;24.90;;;;;;4940544;29;20222;-89
2022/05/27 12:20:49;;;;;;;4.90;1.73;;;24.70;24.00;;;;;;4940918;29;20266;-86
2022/05/27 12:23:30;;;;;;;1.40;1.25;;;24.40;25.10;;;;;;4945329;29;20201;-87
2022/05/27 12:26:07;;;;;;;2.08;1.33;;;24.40;25.80;;;;;;4948497;29;20245;-85
2022/05/27 12:28:48;;;;;;;2.55;1.30;;;24.50;24.10;;;;;;4946439;29;20203;-88
2022/05/27 12:31:17;;;;;;;4.30;1.30;;;24.70;25.70;;;;;;4945297;29;20201;-89
2022/05/27 12:33:56;;;;;;;2.45;1.20;;;24.60;24.70;;;;;;4945079;29;20198;-86
2022/05/27 12:36:42;;;;;;;4.03;1.70;;;24.60;24.70;;;;;;4947959;29;20743;-87
2022/05/27 12:42:50;;;;;;;4.43;1.52;;;24.40;23.20;;;;;;4946151;29;20268;-87
2022/05/27 12:45:39;;;;;;;2.50;1.45;;;24.20;24.90;;;;;;4950929;29;20210;-89
2022/05/27 12:48:08;;;;;;;3.13;1.30;;;24.10;24.50;;;;;;4944780;29;20202;-90
2022/05/27 12:51:00;;;;;;;6.93;1.30;;;24.20;24.10;;;;;;4942459;29;20250;-90
2022/05/27 12:53:44;;;;;;;2.20;1.40;;;24.30;25.50;;;;;;4938387;29;20221;-90
2022/05/27 13:02:53;;;;;;;7.00;4.43;;;24.10;24.10;;;;;;4870782;29;20227;-90
2022/05/27 13:05:23;;;;;;;4.90;1.70;;;24.20;23.80;;;;;;4877512;29;20200;-90
2022/05/27 13:08:42;;;;;;;4.18;1.83;;;24.10;24.10;;;;;;4877132;29;20286;-90
2022/05/27 13:11:18;;;;;;;5.88;1.42;;;24.10;24.80;;;;;;4877572;29;20208;-90
2022/05/27 13:14:12;;;;;;;2.92;1.55;;;24.00;26.20;;;;;;4880631;29;20232;-90
2022/05/27 13:16:51;;;;;;;3.38;1.40;;;24.00;26.70;;;;;;4867708;29;20215;-90
2022/05/27 13:19:36;;;;;;;2.60;1.50;;;23.90;26.70;;;;;;4875855;29;20220;-89
2022/05/27 13:22:12;;;;;;;2.20;1.60;;;24.00;25.70;;;;;;4876316;29;20208;-89
2022/05/27 13:24:44;;;;;;;2.97;1.70;;;24.20;27.80;;;;;;4875909;29;20212;-89
2022/05/27 13:27:28;;;;;;;5.03;2.00;;;23.90;25.70;;;;;;4842935;29;20240;-88
2022/05/27 13:30:04;;;;;;;2.88;1.63;;;23.90;27.70;;;;;;4874594;29;20200;-89
2022/05/27 13:32:34;;;;;;;2.88;1.52;;;24.00;27.10;;;;;;4879242;29;20616;-92
2022/05/27 13:35:13;;;;;;;3.30;2.15;;;24.00;25.60;;;;;;4879611;29;20208;-91
2022/05/27 13:38:00;;;;;;;3.40;1.63;;;24.10;28.00;;;;;;4940712;29;20214;-90
2022/05/27 13:40:31;;;;;;;2.42;1.52;;;24.20;27.30;;;;;;4944220;29;20216;-88
2022/05/27 13:43:11;;;;;;;3.40;1.60;;;24.30;25.70;;;;;;4939108;29;20202;-89
2022/05/27 13:45:46;;;;;;;3.70;1.90;;;24.00;26.10;;;;;;4941769;29;20194;-88
2022/05/27 13:48:35;;;;;;;5.63;1.80;;;24.10;27.30;;;;;;4942434;29;20236;-88
2022/05/27 13:51:15;;;;;;;4.53;1.52;;;24.20;26.90;;;;;;4938948;29;20208;-90
2022/05/27 13:53:55;;;;;;;4.15;1.38;;;24.20;27.10;;;;;;4939227;29;20261;-89
2022/05/27 13:56:26;;;;;;;1.70;1.45;;;24.00;25.90;;;;;;4942088;29;20209;-89
2022/05/27 13:59:03;;;;;;;3.75;1.83;;;23.70;28.20;;;;;;4946270;29;20206;-89
2022/05/27 14:01:35;;;;;;;4.28;1.88;;;23.50;28.00;;;;;;4941243;29;20206;-89
2022/05/27 14:04:13;;;;;;;3.17;1.55;;;23.60;27.70;;;;;;4940262;29;20653;-90
2022/05/27 14:06:41;;;;;;;3.03;1.70;;;23.50;28.00;;;;;;4938977;29;20222;-92
2022/05/27 14:09:18;;;;;;;2.38;1.85;;;23.50;27.60;;;;;;4943619;29;20208;-88
2022/05/27 14:12:12;;;;;;;2.15;1.77;;;23.50;27.90;;;;;;4932051;29;20206;-89
2022/05/27 14:18:03;;;;;;;3.92;1.60;;;23.30;29.40;;;;;;4938872;29;20193;-90
2022/05/27 14:27:03;;;;;;;2.17;1.50;;;23.20;29.80;;;;;;4915491;29;20226;-89
2022/05/27 14:33:29;;;;;;;5.50;1.50;;;23.00;28.40;;;;;;4946160;28;20217;-89
2022/05/27 14:39:21;;;;;;;2.25;1.50;;;22.80;29.10;;;;;;4946422;29;20281;-90
2022/05/27 14:42:24;;;;;;;3.03;1.70;;;22.90;29.30;;;;;;4938690;29;20746;-89
2022/05/27 14:45:32;;;;;;;4.90;1.52;;;22.60;30.10;;;;;;4930143;29;20246;-90
2022/05/27 14:48:43;;;;;;;1.95;1.50;;;22.50;30.50;;;;;;4924218;29;20226;-90
2022/05/27 14:54:54;;;;;;;3.53;1.70;;;22.60;29.90;;;;;;4892523;29;20198;-88
2022/05/27 14:57:36;;;;;;;3.83;1.75;;;22.90;29.30;;;;;;4889253;29;20287;-88
2022/05/27 15:03:28;;;;;;;3.17;1.80;;;22.70;28.90;;;;;;4949607;29;20287;-88
2022/05/27 15:06:20;;;;;;;4.80;1.90;;;22.50;30.00;;;;;;4927710;29;20194;-88
2022/05/27 15:12:51;;;;;;;2.78;1.90;;;22.80;29.80;;;;;;4960989;29;20282;-89
2022/05/27 15:15:41;;;;;;;3.80;1.80;;;22.80;29.60;;;;;;4967213;29;20205;-88
2022/05/27 15:18:29;;;;;;;6.55;1.70;;;22.80;29.30;;;;;;4964280;29;20273;-89
2022/05/27 15:21:11;;;;;;;2.75;1.50;;;22.80;28.70;;;;;;4967285;29;20228;-90
2022/05/27 15:52:55;;;;;;;2.08;1.70;;;21.50;29.70;;;;;;4842707;29;20275;-89
2022/05/27 18:31:12;;;;;;;;;;;;;;;;;;;;;
2022/05/27 19:05:37;;;;;;;;;;;;;;;;;;;;;
2022/05/27 20:01:43;;;;;;;;;;;;;;;;;;;;;
2022/05/27 20:46:20;;;;;;;2.55;1.60;;;16.00;76.10;;;;;;4902563;29;20218;-88
2022/05/27 21:33:14;;;;;;;3.03;1.48;;;15.60;86.40;;;;;;4973996;29;20192;-87
2022/05/27 21:52:47;;;;;;;2.22;1.80;;;15.40;90.30;;;;;;4886391;29;20776;-89
2022/05/27 22:18:49;;;;;;;1.88;1.40;;;15.20;91.50;;;;;;4931959;29;20272;-87
2022/05/27 23:05:29;;;;;;;1.63;1.52;;;14.90;92.40;;;;;;4955761;29;20181;-88
2022/05/27 23:22:05;;;;;;;1.60;1.48;;;14.80;92.20;;;;;;4930377;29;20210;-87
